createdAt,value
2018-11-28T00:00:35.993Z,45.17
2018-11-28T00:03:06.923Z,45.48
2018-11-28T00:05:34.314Z,44.03
2018-11-28T00:08:01.828Z,39.15
2018-11-28T00:10:29.261Z,41.92
2018-11-28T00:12:56.589Z,46.05
2018-11-28T00:15:23.938Z,42.43
2018-11-28T00:17:51.284Z,42.40
2018-11-28T00:20:20.911Z,42.67
2018-11-28T00:22:48.288Z,41.20
2018-11-28T00:25:16.097Z,46.05
2018-11-28T00:27:43.905Z,41.98
2018-11-28T00:30:12.737Z,41.28
2018-11-28T00:32:40.309Z,44.70
2018-11-28T00:35:08.640Z,46.63
2018-11-28T00:37:36.024Z,34.98
2018-11-28T00:40:03.616Z,48.80
2018-11-28T00:42:31.469Z,38.50
2018-11-28T00:44:58.900Z,39.85
2018-11-28T00:47:26.299Z,47.33
2018-11-28T00:49:53.664Z,38.23
2018-11-28T00:52:21.078Z,39.70
2018-11-28T00:54:48.427Z,44.25
2018-11-28T00:57:15.806Z,43.38
2018-11-28T00:59:43.189Z,41.92
2018-11-28T01:02:10.857Z,48.10
2018-11-28T01:04:38.195Z,44.65
2018-11-28T01:07:06.121Z,42.73
2018-11-28T01:09:33.441Z,45.63
2018-11-28T01:12:01.062Z,45.52
2018-11-28T01:14:28.411Z,43.48
2018-11-28T01:16:55.768Z,37.15
2018-11-28T01:19:23.179Z,46.58
2018-11-28T01:21:50.478Z,50.75
2018-11-28T01:24:17.875Z,38.23
2018-11-28T01:26:45.226Z,49.35
2018-11-28T01:29:12.622Z,44.20
2018-11-28T01:31:40.073Z,47.10
2018-11-28T01:34:07.444Z,48.40
2018-11-28T01:36:34.804Z,41.83
2018-11-28T01:39:02.209Z,47.90
2018-11-28T01:41:29.764Z,45.05
2018-11-28T01:43:57.113Z,51.48
2018-11-28T01:46:24.520Z,40.58
2018-11-28T01:48:52.123Z,48.15
2018-11-28T01:51:19.430Z,42.58
2018-11-28T01:53:46.809Z,50.78
2018-11-28T01:56:14.212Z,52.88
2018-11-28T01:58:41.782Z,47.62
2018-11-28T02:01:09.598Z,45.75
2018-11-28T02:03:36.947Z,43.45
2018-11-28T02:06:04.968Z,43.70
2018-11-28T02:08:32.273Z,52.10
2018-11-28T02:10:59.583Z,46.40
2018-11-28T02:13:27.034Z,40.35
2018-11-28T02:15:54.370Z,45.08
2018-11-28T02:18:21.700Z,43.00
2018-11-28T02:20:48.980Z,47.40
2018-11-28T02:23:16.757Z,48.52
2018-11-28T02:25:44.064Z,40.45
2018-11-28T02:28:11.876Z,49.20
2018-11-28T02:30:39.230Z,48.13
2018-11-28T02:33:06.568Z,44.58
2018-11-28T02:35:33.893Z,47.05
2018-11-28T02:38:01.257Z,51.63
2018-11-28T02:40:28.613Z,43.80
2018-11-28T02:42:55.998Z,45.58
2018-11-28T02:45:23.578Z,42.55
2018-11-28T02:47:51.380Z,52.13
2018-11-28T02:50:18.739Z,47.78
2018-11-28T02:52:46.175Z,46.95
2018-11-28T02:55:14.089Z,45.23
2018-11-28T02:57:41.940Z,45.60
2018-11-28T03:00:14.839Z,43.17
2018-11-28T03:02:42.171Z,42.33
2018-11-28T03:05:10.397Z,47.73
2018-11-28T03:07:37.769Z,44.13
2018-11-28T03:10:07.213Z,42.98
2018-11-28T03:12:34.559Z,40.98
2018-11-28T03:15:01.903Z,43.15
2018-11-28T03:17:29.413Z,46.05
2018-11-28T03:19:56.974Z,40.40
2018-11-28T03:22:24.301Z,34.78
2018-11-28T03:24:51.603Z,37.50
2018-11-28T03:27:19.206Z,35.92
2018-11-28T03:29:46.688Z,42.05
2018-11-28T03:32:14.053Z,44.13
2018-11-28T03:34:45.383Z,43.52
2018-11-28T03:37:11.440Z,41.45
2018-11-28T03:39:39.455Z,43.00
2018-11-28T03:42:06.842Z,38.13
2018-11-28T03:44:34.694Z,42.85
2018-11-28T03:47:02.251Z,41.98
2018-11-28T03:49:29.605Z,36.15
2018-11-28T03:51:57.180Z,34.63
2018-11-28T03:54:24.558Z,31.15
2018-11-28T03:56:51.962Z,31.65
2018-11-28T03:59:19.346Z,35.00
2018-11-28T04:01:46.697Z,41.40
2018-11-28T04:04:14.009Z,40.10
2018-11-28T04:06:41.320Z,39.80
2018-11-28T04:09:08.885Z,42.85
2018-11-28T04:11:36.213Z,42.33
2018-11-28T04:14:03.584Z,38.70
2018-11-28T04:16:30.930Z,39.70
2018-11-28T04:18:58.252Z,37.42
2018-11-28T04:21:26.158Z,44.23
2018-11-28T04:23:53.640Z,38.25
2018-11-28T04:26:21.873Z,40.25
2018-11-28T04:28:49.480Z,42.95
2018-11-28T04:31:16.820Z,42.88
2018-11-28T04:33:44.433Z,43.05
2018-11-28T04:36:12.001Z,43.48
2018-11-28T04:38:39.414Z,48.23
2018-11-28T04:41:06.853Z,41.00
2018-11-28T04:43:34.365Z,40.55
2018-11-28T04:46:02.252Z,38.88
2018-11-28T04:48:29.917Z,46.63
2018-11-28T04:50:57.218Z,47.03
2018-11-28T04:53:24.568Z,42.35
2018-11-28T04:55:51.897Z,38.33
2018-11-28T04:58:19.631Z,44.73
2018-11-28T05:00:47.016Z,42.30
2018-11-28T05:03:14.375Z,44.23
2018-11-28T05:05:41.753Z,40.45
2018-11-28T05:08:09.100Z,43.70
2018-11-28T05:10:36.501Z,37.20
2018-11-28T05:13:03.881Z,34.70
2018-11-28T05:15:31.752Z,39.95
2018-11-28T05:17:59.143Z,35.25
2018-11-28T05:20:26.940Z,41.20
2018-11-28T05:22:54.303Z,49.90
2018-11-28T05:25:23.402Z,45.88
2018-11-28T05:27:51.142Z,41.83
2018-11-28T05:30:20.940Z,48.52
2018-11-28T05:32:48.588Z,45.95
2018-11-28T05:35:16.481Z,38.73
2018-11-28T05:37:43.931Z,45.52
2018-11-28T05:40:11.936Z,56.35
2018-11-28T05:42:39.279Z,52.40
2018-11-28T05:45:08.616Z,45.25
2018-11-28T05:47:36.165Z,41.30
2018-11-28T05:50:03.958Z,55.15
2018-11-28T05:52:31.306Z,49.42
2018-11-28T05:54:59.036Z,50.55
2018-11-28T05:57:26.359Z,42.20
2018-11-28T05:59:53.821Z,51.45
2018-11-28T06:02:21.368Z,44.63
2018-11-28T06:04:48.785Z,51.10
2018-11-28T06:07:16.115Z,53.73
2018-11-28T06:09:43.393Z,51.00
2018-11-28T06:12:12.284Z,54.70
2018-11-28T06:14:39.567Z,51.53
2018-11-28T06:17:07.015Z,41.28
2018-11-28T06:19:34.371Z,47.60
2018-11-28T06:22:01.741Z,51.60
2018-11-28T06:24:29.086Z,47.13
2018-11-28T06:26:56.772Z,59.10
2018-11-28T06:29:24.063Z,50.70
2018-11-28T06:31:51.385Z,56.10
2018-11-28T06:34:18.950Z,52.23
2018-11-28T06:36:46.263Z,51.40
2018-11-28T06:39:13.708Z,40.85
2018-11-28T06:41:41.225Z,56.68
2018-11-28T06:44:08.576Z,51.83
2018-11-28T06:46:35.876Z,48.15
2018-11-28T06:49:03.243Z,47.10
2018-11-28T06:51:30.855Z,55.67
2018-11-28T06:53:58.181Z,50.95
2018-11-28T06:56:25.737Z,48.87
2018-11-28T06:58:53.293Z,48.55
2018-11-28T07:01:20.676Z,46.42
2018-11-28T07:03:47.976Z,48.15
2018-11-28T07:06:15.320Z,51.90
2018-11-28T07:08:42.873Z,52.67
2018-11-28T07:11:10.184Z,48.75
2018-11-28T07:13:37.513Z,53.00
2018-11-28T07:16:04.977Z,41.20
2018-11-28T07:18:38.053Z,53.00
2018-11-28T07:21:05.385Z,55.58
2018-11-28T07:23:32.943Z,54.40
2018-11-28T07:26:00.319Z,56.73
2018-11-28T07:28:27.609Z,49.90
2018-11-28T07:30:55.166Z,57.67
2018-11-28T07:33:22.560Z,51.18
2018-11-28T07:35:49.876Z,59.73
2018-11-28T07:38:17.308Z,53.20
2018-11-28T07:40:44.648Z,49.85
2018-11-28T07:43:12.702Z,47.05
2018-11-28T07:45:41.686Z,43.13
2018-11-28T07:48:09.223Z,40.43
2018-11-28T07:50:36.740Z,45.80
2018-11-28T07:53:04.091Z,42.48
2018-11-28T07:55:31.621Z,48.28
2018-11-28T07:57:58.992Z,47.62
2018-11-28T08:00:26.529Z,34.58
2018-11-28T08:02:53.876Z,38.33
2018-11-28T08:05:21.210Z,38.05
2018-11-28T08:07:48.536Z,42.55
2018-11-28T08:10:26.311Z,44.00
2018-11-28T08:12:57.864Z,40.48
2018-11-28T08:15:25.328Z,44.20
2018-11-28T08:17:52.681Z,41.42
2018-11-28T08:23:04.858Z,38.95
2018-11-28T08:25:32.250Z,44.67
2018-11-28T08:27:59.643Z,36.63
2018-11-28T08:30:27.391Z,38.65
2018-11-28T08:32:55.213Z,32.88
2018-11-28T08:35:22.843Z,30.57
2018-11-28T08:37:50.181Z,43.02
2018-11-28T08:40:18.370Z,43.08
2018-11-28T08:42:45.745Z,42.15
2018-11-28T08:45:14.512Z,43.30
2018-11-28T08:47:42.046Z,43.60
2018-11-28T08:50:10.632Z,43.70
2018-11-28T08:52:38.119Z,35.08
2018-11-28T08:55:06.436Z,35.80
2018-11-28T08:57:33.899Z,39.45
2018-11-28T09:00:01.473Z,38.90
2018-11-28T09:02:29.099Z,42.78
2018-11-28T09:04:56.433Z,43.92
2018-11-28T09:07:24.038Z,37.60
2018-11-28T09:09:51.667Z,41.77
2018-11-28T09:12:19.288Z,40.73
2018-11-28T09:14:46.770Z,40.88
2018-11-28T09:17:15.264Z,36.70
2018-11-28T09:19:41.899Z,40.10
2018-11-28T09:22:09.229Z,42.23
2018-11-28T09:24:36.735Z,45.58
2018-11-28T09:27:04.503Z,38.55
2018-11-28T09:29:31.898Z,41.80
2018-11-28T09:31:59.315Z,43.25
2018-11-28T09:34:26.871Z,34.45
2018-11-28T09:36:54.400Z,39.03
2018-11-28T09:39:21.761Z,44.55
2018-11-28T09:41:49.344Z,41.50
2018-11-28T09:44:16.686Z,39.00
2018-11-28T09:46:44.099Z,40.00
2018-11-28T09:49:11.664Z,43.45
2018-11-28T09:51:39.012Z,41.88
2018-11-28T09:54:06.392Z,44.10
2018-11-28T09:56:33.725Z,39.48
2018-11-28T09:59:01.285Z,39.65
2018-11-28T10:01:28.632Z,45.80
2018-11-28T10:03:55.977Z,43.92
2018-11-28T10:06:23.643Z,40.17
2018-11-28T10:08:51.291Z,42.75
2018-11-28T10:11:18.722Z,39.58
2018-11-28T10:13:46.288Z,40.60
2018-11-28T10:16:13.889Z,35.73
2018-11-28T10:18:41.221Z,41.45
2018-11-28T10:21:08.785Z,42.83
2018-11-28T10:23:36.170Z,40.08
2018-11-28T10:26:03.482Z,42.05
2018-11-28T10:28:31.057Z,44.63
2018-11-28T10:30:58.429Z,40.23
2018-11-28T10:33:26.065Z,39.35
2018-11-28T10:35:53.629Z,43.52
2018-11-28T10:38:21.465Z,43.65
2018-11-28T10:40:48.877Z,45.45
2018-11-28T10:43:16.209Z,41.75
2018-11-28T10:45:43.592Z,45.20
2018-11-28T10:48:11.732Z,40.10
2018-11-28T10:50:39.104Z,40.60
2018-11-28T10:53:06.812Z,44.05
2018-11-28T10:55:34.233Z,45.05
2018-11-28T10:58:01.775Z,40.38
2018-11-28T11:00:35.230Z,37.28
2018-11-28T11:03:08.094Z,49.42
2018-11-28T11:05:41.205Z,43.55
2018-11-28T11:08:13.843Z,43.15
2018-11-28T11:10:46.615Z,43.08
2018-11-28T11:13:19.300Z,39.92
2018-11-28T11:15:52.338Z,44.27
2018-11-28T11:18:20.731Z,39.73
2018-11-28T11:20:48.039Z,43.02
2018-11-28T11:23:15.857Z,42.30
2018-11-28T11:25:43.528Z,48.20
2018-11-28T11:28:10.921Z,41.60
2018-11-28T11:30:38.849Z,43.73
2018-11-28T11:33:06.659Z,37.80
2018-11-28T11:35:34.049Z,42.83
2018-11-28T11:38:01.805Z,40.88
2018-11-28T11:40:29.665Z,47.70
2018-11-28T11:42:57.082Z,43.98
2018-11-28T11:45:24.909Z,38.42
2018-11-28T11:47:52.777Z,40.15
2018-11-28T11:50:20.126Z,46.33
2018-11-28T11:52:47.505Z,46.53
2018-11-28T11:55:16.539Z,45.00
2018-11-28T11:57:43.775Z,48.00
2018-11-28T12:00:19.493Z,48.20
2018-11-28T12:02:48.764Z,35.73
2018-11-28T12:05:16.077Z,47.03
2018-11-28T12:07:43.445Z,42.93
2018-11-28T12:10:11.440Z,44.77
2018-11-28T12:12:38.984Z,38.73
2018-11-28T12:15:08.129Z,44.45
2018-11-28T12:17:35.749Z,44.10
2018-11-28T12:20:03.400Z,42.50
2018-11-28T12:22:31.124Z,44.05
2018-11-28T12:24:58.755Z,45.12
2018-11-28T12:27:26.155Z,49.20
2018-11-28T12:29:53.557Z,47.05
2018-11-28T12:32:21.372Z,45.12
2018-11-28T12:34:50.476Z,44.77
2018-11-28T12:37:18.051Z,45.50
2018-11-28T12:39:44.312Z,49.55
2018-11-28T12:42:11.877Z,45.28
2018-11-28T12:44:39.259Z,44.95
2018-11-28T12:47:06.666Z,48.63
2018-11-28T12:49:34.507Z,52.13
2018-11-28T12:52:02.086Z,48.83
2018-11-28T12:54:29.671Z,50.33
2018-11-28T12:56:57.003Z,44.08
2018-11-28T12:59:24.345Z,45.40
2018-11-28T13:01:51.726Z,44.33
2018-11-28T13:04:19.042Z,45.60
2018-11-28T13:06:46.419Z,42.35
2018-11-28T13:09:13.781Z,42.93
2018-11-28T13:11:41.280Z,46.90
2018-11-28T13:14:08.608Z,40.28
2018-11-28T13:16:36.081Z,44.15
2018-11-28T13:19:03.476Z,46.45
2018-11-28T13:21:31.134Z,37.60
2018-11-28T13:23:58.277Z,39.03
2018-11-28T13:26:25.573Z,41.95
2018-11-28T13:28:53.142Z,34.65
2018-11-28T13:31:20.438Z,37.65
2018-11-28T13:33:47.996Z,41.18
2018-11-28T13:36:15.621Z,34.78
2018-11-28T13:38:42.960Z,38.08
2018-11-28T13:41:10.530Z,41.37
2018-11-28T13:43:37.879Z,40.98
2018-11-28T13:46:07.279Z,39.53
2018-11-28T13:48:33.197Z,41.80
2018-11-28T13:51:00.521Z,39.90
2018-11-28T13:53:27.888Z,40.63
2018-11-28T13:56:57.081Z,37.67
2018-11-28T13:58:23.150Z,39.75
2018-11-28T14:00:50.510Z,38.65
2018-11-28T14:03:18.519Z,39.03
2018-11-28T14:05:46.057Z,40.78
2018-11-28T14:08:13.717Z,37.20
2018-11-28T14:10:41.032Z,29.40
2018-11-28T14:13:08.356Z,35.95
2018-11-28T14:15:35.972Z,30.88
2018-11-28T14:18:04.588Z,34.05
2018-11-28T14:20:31.934Z,37.20
2018-11-28T14:22:59.265Z,38.53
2018-11-28T14:25:26.837Z,41.53
2018-11-28T14:27:54.237Z,39.50
2018-11-28T14:30:21.986Z,30.55
2018-11-28T14:32:50.284Z,34.48
2018-11-28T14:35:17.672Z,35.15
2018-11-28T14:37:45.024Z,38.17
2018-11-28T14:40:13.183Z,38.30
2018-11-28T14:42:40.722Z,36.05
2018-11-28T14:45:09.958Z,41.42
2018-11-28T14:47:37.324Z,42.30
2018-11-28T14:50:05.673Z,39.03
2018-11-28T14:52:33.228Z,38.67
2018-11-28T14:55:00.560Z,40.78
2018-11-28T14:57:27.891Z,39.20
2018-11-28T14:59:55.458Z,41.13
2018-11-28T15:02:23.078Z,38.65
2018-11-28T15:04:50.814Z,43.92
2018-11-28T15:07:18.161Z,35.20
2018-11-28T15:09:50.926Z,39.20
2018-11-28T15:12:18.249Z,33.92
2018-11-28T15:14:46.749Z,34.30
2018-11-28T15:17:14.408Z,42.10
2018-11-28T15:19:41.773Z,48.30
2018-11-28T15:22:09.136Z,45.33
2018-11-28T15:24:36.470Z,40.43
2018-11-28T15:27:04.342Z,43.02
2018-11-28T15:29:31.701Z,49.10
2018-11-28T15:31:59.041Z,41.08
2018-11-28T15:34:26.374Z,41.08
2018-11-28T15:36:53.708Z,38.55
2018-11-28T15:39:21.299Z,32.70
2018-11-28T15:41:48.705Z,38.83
2018-11-28T15:44:16.241Z,44.95
2018-11-28T15:46:43.530Z,38.58
2018-11-28T15:49:10.846Z,36.50
2018-11-28T15:51:38.175Z,42.03
2018-11-28T15:54:05.998Z,44.00
2018-11-28T15:56:33.343Z,49.23
2018-11-28T15:59:00.700Z,43.80
2018-11-28T16:01:28.229Z,45.98
2018-11-28T16:03:55.568Z,41.75
2018-11-28T16:06:22.893Z,43.50
2018-11-28T16:08:56.779Z,39.25
2018-11-28T16:11:24.223Z,46.08
2018-11-28T16:13:51.567Z,40.17
2018-11-28T16:16:18.917Z,45.70
2018-11-28T16:18:46.234Z,38.58
2018-11-28T16:21:13.745Z,48.02
2018-11-28T16:23:41.130Z,45.17
2018-11-28T16:26:08.474Z,42.20
2018-11-28T16:28:35.854Z,44.33
2018-11-28T16:31:03.228Z,51.33
2018-11-28T16:33:30.702Z,43.78
2018-11-28T16:35:58.080Z,39.63
2018-11-28T16:38:26.333Z,44.85
2018-11-28T16:40:53.787Z,41.40
2018-11-28T16:43:21.300Z,40.52
2018-11-28T16:45:49.195Z,45.03
2018-11-28T16:48:16.525Z,45.80
2018-11-28T16:50:44.066Z,39.10
2018-11-28T16:53:11.678Z,46.95
2018-11-28T16:55:38.965Z,42.23
2018-11-28T16:58:07.195Z,43.73
2018-11-28T17:00:36.494Z,41.90
2018-11-28T17:03:06.099Z,44.08
2018-11-28T17:05:35.162Z,41.88
2018-11-28T17:08:04.881Z,40.40
2018-11-28T17:10:32.330Z,34.40
2018-11-28T17:12:59.990Z,35.65
2018-11-28T17:15:27.547Z,34.65
2018-11-28T17:17:55.159Z,45.63
2018-11-28T17:20:25.091Z,36.63
2018-11-28T17:22:53.205Z,34.98
2018-11-28T17:25:21.169Z,34.75
2018-11-28T17:27:48.970Z,39.45
2018-11-28T17:30:19.076Z,38.73
2018-11-28T17:32:46.253Z,45.35
2018-11-28T17:35:14.299Z,42.93
2018-11-28T17:37:41.858Z,43.63
2018-11-28T17:40:11.093Z,37.45
2018-11-28T17:42:38.806Z,37.83
2018-11-28T17:45:08.178Z,33.30
2018-11-28T17:47:35.711Z,39.53
2018-11-28T17:50:03.219Z,33.00
2018-11-28T17:52:30.750Z,40.88
2018-11-28T17:54:58.104Z,37.80
2018-11-28T17:57:25.509Z,36.93
2018-11-28T17:59:52.816Z,39.50
2018-11-28T18:02:20.221Z,35.58
2018-11-28T18:04:47.558Z,38.58
2018-11-28T18:07:14.873Z,36.17
2018-11-28T18:09:44.210Z,42.53
2018-11-28T18:12:13.275Z,39.88
2018-11-28T18:14:41.680Z,37.23
2018-11-28T18:17:09.576Z,34.53
2018-11-28T18:19:37.482Z,34.10
2018-11-28T18:22:05.970Z,39.13
2018-11-28T18:24:36.212Z,39.98
2018-11-28T18:27:06.089Z,36.95
2018-11-28T18:29:35.607Z,32.67
2018-11-28T18:32:04.511Z,39.20
2018-11-28T18:34:34.840Z,33.45
2018-11-28T18:37:03.324Z,39.15
2018-11-28T18:39:32.820Z,38.28
2018-11-28T18:42:02.307Z,37.40
2018-11-28T18:44:31.018Z,38.17
2018-11-28T18:47:00.871Z,38.08
2018-11-28T18:49:29.896Z,39.35
2018-11-28T18:51:58.516Z,38.95
2018-11-28T18:54:26.126Z,38.65
2018-11-28T18:56:54.898Z,30.23
2018-11-28T18:59:22.800Z,39.33
2018-11-28T19:01:52.442Z,38.10
2018-11-28T19:04:20.161Z,38.42
2018-11-28T19:06:47.495Z,36.20
2018-11-28T19:09:20.433Z,34.25
2018-11-28T19:11:48.120Z,42.38
2018-11-28T19:14:15.915Z,37.13
2018-11-28T19:16:45.011Z,34.58
2018-11-28T19:19:12.351Z,33.83
2018-11-28T19:21:42.539Z,30.77
2018-11-28T19:24:11.789Z,36.17
2018-11-28T19:26:40.878Z,34.23
2018-11-28T19:29:10.972Z,34.63
2018-11-28T19:31:42.090Z,34.20
2018-11-28T19:34:18.048Z,31.80
2018-11-28T19:36:41.529Z,37.30
2018-11-28T19:39:09.678Z,33.18
2018-11-28T19:41:39.548Z,34.30
2018-11-28T19:44:07.339Z,30.68
2018-11-28T19:46:34.870Z,35.05
2018-11-28T19:49:06.709Z,34.50
2018-11-28T19:51:34.890Z,36.55
2018-11-28T19:54:02.255Z,34.75
2018-11-28T19:56:29.581Z,30.75
2018-11-28T19:58:58.060Z,33.02
2018-11-28T20:01:25.649Z,37.10
2018-11-28T20:06:20.695Z,35.90
2018-11-28T20:08:48.098Z,31.62
2018-11-28T20:11:15.563Z,38.00
2018-11-28T20:13:42.898Z,31.62
2018-11-28T20:16:10.389Z,33.25
2018-11-28T20:18:37.927Z,34.55
2018-11-28T20:21:05.357Z,35.38
2018-11-28T20:23:32.910Z,34.03
2018-11-28T20:26:00.530Z,33.25
2018-11-28T20:28:27.865Z,29.65
2018-11-28T20:30:56.153Z,33.25
2018-11-28T20:33:23.536Z,32.58
2018-11-28T20:35:50.862Z,34.05
2018-11-28T20:38:19.983Z,36.75
2018-11-28T20:40:47.461Z,35.33
2018-11-28T20:43:15.099Z,32.13
2018-11-28T20:45:42.676Z,35.05
2018-11-28T20:48:10.292Z,33.78
2018-11-28T20:50:37.605Z,31.90
2018-11-28T20:53:20.489Z,31.97
2018-11-28T20:55:47.819Z,34.70
2018-11-28T20:58:16.032Z,32.20
2018-11-28T21:00:44.797Z,36.13
2018-11-28T21:03:12.162Z,34.33
2018-11-28T21:05:39.549Z,32.53
2018-11-28T21:08:08.214Z,33.65
2018-11-28T21:10:36.571Z,31.93
2018-11-28T21:13:04.171Z,34.83
2018-11-28T21:15:32.452Z,34.95
2018-11-28T21:18:00.152Z,35.03
2018-11-28T21:20:27.549Z,34.98
2018-11-28T21:22:58.263Z,33.25
2018-11-28T21:25:25.681Z,36.70
2018-11-28T21:27:53.251Z,28.55
2018-11-28T21:30:21.072Z,37.08
2018-11-28T21:32:48.898Z,34.20
2018-11-28T21:35:18.731Z,32.58
2018-11-28T21:37:46.431Z,38.23
2018-11-28T21:40:13.884Z,33.95
2018-11-28T21:42:41.245Z,34.60
2018-11-28T21:45:16.874Z,37.90
2018-11-28T21:47:44.268Z,34.70
2018-11-28T21:50:12.416Z,36.98
2018-11-28T21:52:40.209Z,35.35
2018-11-28T21:55:08.909Z,34.18
2018-11-28T21:57:36.403Z,29.60
2018-11-28T22:00:04.821Z,38.13
2018-11-28T22:02:32.137Z,37.08
2018-11-28T22:04:59.580Z,34.75
2018-11-28T22:07:27.286Z,35.17
2018-11-28T22:09:54.591Z,34.15
2018-11-28T22:12:21.888Z,35.08
2018-11-28T22:14:49.695Z,34.50
2018-11-28T22:17:17.074Z,34.50
2018-11-28T22:19:44.630Z,33.92
2018-11-28T22:22:12.577Z,34.50
2018-11-28T22:24:39.916Z,37.13
2018-11-28T22:27:07.502Z,33.65
2018-11-28T22:29:35.188Z,36.58
2018-11-28T22:32:02.726Z,33.28
2018-11-28T22:34:30.095Z,32.60
2018-11-28T22:36:57.608Z,41.48
2018-11-28T22:39:25.509Z,36.80
2018-11-28T22:41:52.797Z,36.73
2018-11-28T22:44:20.222Z,41.58
2018-11-28T22:46:47.551Z,40.10
2018-11-28T22:49:14.887Z,39.48
2018-11-28T22:51:42.450Z,41.95
2018-11-28T22:54:10.020Z,35.75
2018-11-28T22:56:37.325Z,38.70
2018-11-28T22:59:04.648Z,37.58
2018-11-28T23:01:38.699Z,35.85
2018-11-28T23:04:06.264Z,36.30
2018-11-28T23:06:34.044Z,40.08
2018-11-28T23:09:01.385Z,34.98
2018-11-28T23:11:28.681Z,40.50
2018-11-28T23:13:56.043Z,36.85
2018-11-28T23:16:24.391Z,41.23
2018-11-28T23:18:51.816Z,42.35
2018-11-28T23:21:19.292Z,41.70
2018-11-28T23:23:46.613Z,40.40
2018-11-28T23:26:14.354Z,34.50
2018-11-28T23:28:41.823Z,37.73
2018-11-28T23:31:09.137Z,39.35
2018-11-28T23:33:36.420Z,35.68
2018-11-28T23:36:03.766Z,39.18
2018-11-28T23:38:31.581Z,34.83
2018-11-28T23:40:59.085Z,33.67
2018-11-28T23:43:26.648Z,33.45
2018-11-28T23:45:54.015Z,37.13
2018-11-28T23:48:21.334Z,38.30
2018-11-28T23:50:48.764Z,40.45
2018-11-28T23:53:16.313Z,32.23
2018-11-28T23:55:43.690Z,32.78
2018-11-28T23:58:11.018Z,36.03
